CheckWX is a tool to help pilots better visualize weather data.  It is not intended as a substitute for an official pre-flight weather briefing.

08:37:41 UTC

KPEA METAR
Pella Municipal Airport
Pella, Iowa, USA
Current

23 mins ago

KPEA 060815Z AUTO 17003KT 10SM OVC045 08/05 A3005 RMK AO2 T00810048
Observed
Apr-6 @ 08:15 UTC
Wind
  • 170° at 3 KTS
Visibility
Flight Rules
VFR
Cloud Levels
  • Overcast at 4,500' AGL
Temperature
C / 46°F
Dewpoint
C / 41°F
Humidity
82%
Altimeter
30.05" Hg
Pressure
1017.62 hPa
Previous

43 mins ago

KPEA 060755Z AUTO 19004KT 10SM BKN045 08/04 A3005 RMK AO2 T00750043
Observed
Apr-6 @ 07:55 UTC
Wind
  • 190° at 4 KTS
Visibility
Flight Rules
VFR
Cloud Levels
  • Broken at 4,500' AGL
Temperature
C / 46°F
Dewpoint
C / 39°F
Humidity
76%
Altimeter
30.05" Hg
Pressure
1017.62 hPa
Previous

1 hour ago

KPEA 060735Z AUTO 19004KT 10SM CLR 08/04 A3006 RMK AO2 T00750038
Observed
Apr-6 @ 07:35 UTC
Wind
  • 190° at 4 KTS
Visibility
Flight Rules
VFR
Cloud Levels
  • Clear skies
Temperature
C / 46°F
Dewpoint
C / 39°F
Humidity
76%
Altimeter
30.06" Hg
Pressure
1017.92 hPa